createdAt,value
2023-11-19T00:00:35.074Z,10.30
2023-11-19T00:03:03.352Z,10.30
2023-11-19T00:05:31.439Z,10.40
2023-11-19T00:07:59.347Z,10.40
2023-11-19T00:10:27.255Z,10.30
2023-11-19T00:12:58.009Z,10.40
2023-11-19T00:15:26.638Z,10.40
2023-11-19T00:17:54.693Z,10.40
2023-11-19T00:20:23.882Z,10.40
2023-11-19T00:22:53.493Z,10.60
2023-11-19T00:25:23.068Z,10.50
2023-11-19T00:27:52.258Z,10.60
2023-11-19T00:30:21.519Z,10.70
2023-11-19T00:32:49.821Z,10.50
2023-11-19T00:35:17.766Z,10.60
2023-11-19T00:37:46.701Z,10.60
2023-11-19T00:40:16.827Z,10.50
2023-11-19T00:42:45.102Z,10.60
2023-11-19T00:45:14.160Z,10.60
2023-11-19T00:47:44.057Z,10.60
2023-11-19T00:50:12.797Z,10.80
2023-11-19T00:52:41.266Z,10.80
2023-11-19T00:55:09.742Z,10.80
2023-11-19T00:57:37.765Z,10.80
2023-11-19T01:00:16.378Z,10.80
2023-11-19T01:02:45.716Z,10.90
2023-11-19T01:05:15.230Z,10.90
2023-11-19T01:07:43.014Z,11.00
2023-11-19T01:10:11.515Z,11.00
2023-11-19T01:12:39.351Z,11.10
2023-11-19T01:15:08.152Z,11.20
2023-11-19T01:17:36.225Z,11.10
2023-11-19T01:20:07.752Z,11.20
2023-11-19T01:22:36.537Z,11.20
2023-11-19T01:25:06.422Z,11.30
2023-11-19T01:27:35.657Z,11.30
2023-11-19T01:30:04.726Z,11.30
2023-11-19T01:32:32.607Z,11.40
2023-11-19T01:35:00.600Z,11.40
2023-11-19T01:37:29.933Z,11.50
2023-11-19T01:39:59.318Z,11.40
2023-11-19T01:42:28.603Z,11.60
2023-11-19T01:45:01.367Z,11.60
2023-11-19T01:47:30.509Z,11.70
2023-11-19T01:49:59.091Z,11.60
2023-11-19T01:52:29.142Z,11.70
2023-11-19T01:54:57.241Z,11.70
2023-11-19T01:57:25.840Z,11.80
2023-11-19T01:59:54.942Z,11.90
2023-11-19T02:02:23.121Z,11.90
2023-11-19T02:04:53.056Z,11.90
2023-11-19T02:07:21.537Z,11.90
2023-11-19T02:09:50.810Z,11.90
2023-11-19T02:12:19.228Z,11.90
2023-11-19T02:14:47.057Z,11.80
2023-11-19T02:17:28.218Z,11.90
2023-11-19T02:19:56.194Z,11.90
2023-11-19T02:22:24.610Z,12.00
2023-11-19T02:25:00.846Z,12.20
2023-11-19T02:27:40.560Z,11.90
2023-11-19T02:30:10.183Z,12.00
2023-11-19T02:32:39.904Z,12.20
2023-11-19T02:35:09.907Z,12.00
2023-11-19T02:37:37.981Z,12.20
2023-11-19T02:40:09.753Z,12.20
2023-11-19T02:42:37.717Z,12.20
2023-11-19T02:45:08.549Z,12.30
2023-11-19T02:47:36.927Z,12.30
2023-11-19T02:50:05.180Z,12.40
2023-11-19T02:52:36.157Z,12.30
2023-11-19T02:55:04.225Z,12.20
2023-11-19T02:57:34.821Z,12.30
2023-11-19T03:00:05.849Z,12.30
2023-11-19T03:02:44.974Z,12.20
2023-11-19T03:05:13.245Z,12.40
2023-11-19T03:07:41.066Z,12.40
2023-11-19T03:10:10.174Z,12.40
2023-11-19T03:12:38.044Z,12.40
2023-11-19T03:15:06.665Z,12.30
2023-11-19T03:17:35.891Z,12.40
2023-11-19T03:20:03.780Z,12.30
2023-11-19T03:22:31.763Z,12.50
2023-11-19T03:24:59.621Z,12.40
2023-11-19T03:27:27.567Z,12.30
2023-11-19T03:29:55.467Z,12.40
2023-11-19T03:32:23.269Z,12.40
2023-11-19T03:34:52.452Z,12.40
2023-11-19T03:37:20.698Z,12.30
2023-11-19T03:39:48.509Z,12.40
2023-11-19T03:42:16.309Z,12.30
2023-11-19T03:44:44.097Z,12.20
2023-11-19T03:47:11.895Z,12.10
2023-11-19T03:49:39.766Z,12.20
2023-11-19T03:52:10.448Z,12.10
2023-11-19T03:54:48.173Z,12.20
2023-11-19T03:57:16.728Z,12.20
2023-11-19T03:59:44.947Z,12.00
2023-11-19T04:02:12.992Z,12.20
2023-11-19T04:04:40.958Z,12.00
2023-11-19T04:07:10.257Z,12.00
2023-11-19T04:09:38.563Z,11.90
2023-11-19T04:12:07.785Z,12.00
2023-11-19T04:14:35.676Z,11.80
2023-11-19T04:17:03.593Z,11.90
2023-11-19T04:19:33.751Z,11.90
2023-11-19T04:22:01.956Z,11.80
2023-11-19T04:24:32.786Z,11.80
2023-11-19T04:27:00.623Z,11.80
2023-11-19T04:29:28.456Z,11.70
2023-11-19T04:31:56.248Z,11.80
2023-11-19T04:34:24.112Z,11.70
2023-11-19T04:36:51.930Z,11.70
2023-11-19T04:39:20.052Z,11.90
2023-11-19T04:41:50.188Z,11.80
2023-11-19T04:44:18.526Z,11.80
2023-11-19T04:46:46.759Z,11.90
2023-11-19T04:49:15.705Z,11.80
2023-11-19T04:51:44.216Z,11.80
2023-11-19T04:54:12.566Z,11.80
2023-11-19T04:56:40.750Z,11.60
2023-11-19T04:59:10.241Z,11.50
2023-11-19T05:01:38.281Z,11.50
2023-11-19T05:04:06.341Z,11.40
2023-11-19T05:06:34.374Z,11.30
2023-11-19T05:09:06.798Z,11.30
2023-11-19T05:11:35.213Z,11.30
2023-11-19T05:14:05.984Z,11.30
2023-11-19T05:16:36.347Z,11.20
2023-11-19T05:19:05.032Z,11.20
2023-11-19T05:21:32.961Z,11.30
2023-11-19T05:24:00.837Z,11.20
2023-11-19T05:26:28.738Z,11.10
2023-11-19T05:28:56.788Z,11.10
2023-11-19T05:31:24.720Z,11.10
2023-11-19T05:33:54.068Z,11.10
2023-11-19T05:36:21.971Z,11.20
2023-11-19T05:38:49.833Z,11.20
2023-11-19T05:41:17.645Z,11.20
2023-11-19T05:43:45.489Z,11.20
2023-11-19T05:48:46.590Z,11.40
2023-11-19T05:51:16.034Z,11.30
2023-11-19T05:53:43.735Z,11.40
2023-11-19T05:56:11.557Z,11.40
2023-11-19T05:58:41.324Z,11.30
2023-11-19T06:01:09.779Z,11.30
2023-11-19T06:03:38.357Z,11.20
2023-11-19T06:06:07.081Z,11.20
2023-11-19T06:08:36.533Z,11.20
2023-11-19T06:11:04.243Z,11.30
2023-11-19T06:13:32.860Z,11.30
2023-11-19T06:16:00.767Z,11.30
2023-11-19T06:18:28.688Z,11.30
2023-11-19T06:20:56.632Z,11.30
2023-11-19T06:23:24.504Z,11.30
2023-11-19T06:25:53.696Z,11.40
2023-11-19T06:28:21.532Z,11.40
2023-11-19T06:30:49.788Z,11.30
2023-11-19T06:33:17.984Z,11.30
2023-11-19T06:35:45.907Z,11.30
2023-11-19T06:38:14.049Z,11.40
2023-11-19T06:40:42.339Z,11.40
2023-11-19T06:43:11.577Z,11.30
2023-11-19T06:45:39.502Z,11.40
2023-11-19T06:48:08.429Z,11.40
2023-11-19T06:50:36.300Z,11.40
2023-11-19T06:53:04.128Z,11.30
2023-11-19T06:58:10.993Z,11.40
2023-11-19T07:00:38.779Z,11.30
2023-11-19T07:03:09.662Z,11.30
2023-11-19T07:05:39.514Z,11.30
2023-11-19T07:08:09.586Z,11.20
2023-11-19T07:10:37.457Z,11.20
2023-11-19T07:13:06.877Z,11.30
2023-11-19T07:15:36.026Z,11.20
2023-11-19T07:18:03.971Z,11.20
2023-11-19T07:20:34.320Z,11.20
2023-11-19T07:23:02.204Z,11.30
2023-11-19T07:25:29.997Z,11.30
2023-11-19T07:27:58.180Z,11.30
2023-11-19T07:30:26.226Z,11.40
2023-11-19T07:32:55.386Z,11.20
2023-11-19T07:35:22.313Z,11.40
2023-11-19T07:37:51.279Z,11.30
2023-11-19T07:40:20.021Z,11.30
2023-11-19T07:42:47.829Z,11.30
2023-11-19T07:45:15.749Z,11.30
2023-11-19T07:47:43.895Z,11.30
2023-11-19T07:50:15.243Z,11.30
2023-11-19T07:52:43.315Z,11.20
2023-11-19T07:55:11.112Z,11.20
2023-11-19T07:57:39.027Z,11.30
2023-11-19T08:00:08.498Z,11.40
2023-11-19T08:02:37.666Z,11.40
2023-11-19T08:05:06.429Z,11.40
2023-11-19T08:07:35.642Z,11.30
2023-11-19T08:10:03.895Z,11.50
2023-11-19T08:12:32.212Z,11.50
2023-11-19T08:15:00.444Z,11.50
2023-11-19T08:17:28.315Z,11.60
2023-11-19T08:19:56.162Z,11.50
2023-11-19T08:22:24.452Z,11.70
2023-11-19T08:24:53.924Z,11.60
2023-11-19T08:27:27.670Z,11.60
2023-11-19T08:29:57.812Z,11.80
2023-11-19T08:32:25.787Z,11.90
2023-11-19T08:34:53.641Z,11.80
2023-11-19T08:37:22.177Z,11.80
2023-11-19T08:39:50.042Z,12.00
2023-11-19T08:42:19.360Z,12.00
2023-11-19T08:44:51.508Z,12.00
2023-11-19T08:47:19.900Z,12.20
2023-11-19T08:50:03.684Z,12.10
2023-11-19T08:52:35.226Z,12.00
2023-11-19T08:55:03.493Z,12.00
2023-11-19T08:57:32.763Z,12.00
2023-11-19T09:00:00.716Z,12.10
2023-11-19T09:02:28.982Z,12.00
2023-11-19T09:04:56.929Z,12.20
2023-11-19T09:07:25.091Z,12.00
2023-11-19T09:09:52.911Z,12.20
2023-11-19T09:12:20.692Z,12.30
2023-11-19T09:14:50.428Z,12.10
2023-11-19T09:17:19.050Z,12.20
2023-11-19T09:19:46.880Z,12.10
2023-11-19T09:22:15.646Z,12.00
2023-11-19T09:24:45.084Z,12.10
2023-11-19T09:27:12.958Z,12.40
2023-11-19T09:29:40.832Z,12.30
2023-11-19T09:32:10.741Z,12.40
2023-11-19T09:34:38.535Z,12.50
2023-11-19T09:37:21.754Z,12.50
2023-11-19T09:39:50.006Z,12.60
2023-11-19T09:42:19.010Z,12.50
2023-11-19T09:44:48.405Z,12.70
2023-11-19T09:47:19.268Z,12.70
2023-11-19T09:49:51.104Z,12.70
2023-11-19T09:52:19.215Z,12.60
2023-11-19T09:54:47.319Z,12.70
2023-11-19T09:57:19.000Z,12.70
2023-11-19T09:59:48.274Z,12.70
2023-11-19T10:02:18.569Z,12.50
2023-11-19T10:04:48.668Z,12.50
2023-11-19T10:07:16.563Z,12.50
2023-11-19T10:09:44.624Z,12.70
2023-11-19T10:12:12.806Z,12.70
2023-11-19T10:14:45.780Z,12.70
2023-11-19T10:17:13.851Z,12.70
2023-11-19T10:19:44.049Z,12.60
2023-11-19T10:22:13.800Z,12.60
2023-11-19T10:24:46.783Z,12.50
2023-11-19T10:27:18.066Z,12.50
2023-11-19T10:29:48.586Z,12.50
2023-11-19T10:32:25.586Z,12.50
2023-11-19T10:35:08.614Z,12.40
2023-11-19T10:37:39.111Z,12.40
2023-11-19T10:40:11.198Z,12.40
2023-11-19T10:42:42.028Z,12.50
2023-11-19T10:45:25.695Z,12.60
2023-11-19T10:47:56.905Z,12.60
2023-11-19T10:50:26.262Z,12.60
2023-11-19T10:52:56.628Z,12.70
2023-11-19T10:55:29.182Z,12.90
2023-11-19T10:58:02.080Z,12.90
2023-11-19T11:00:32.921Z,12.90
2023-11-19T11:03:03.561Z,13.00
2023-11-19T11:05:35.597Z,13.10
2023-11-19T11:08:05.002Z,13.10
2023-11-19T11:10:37.066Z,13.20
2023-11-19T11:13:07.454Z,13.20
2023-11-19T11:15:36.560Z,13.30
2023-11-19T11:18:05.849Z,13.30
2023-11-19T11:20:36.022Z,13.30
2023-11-19T11:23:39.428Z,13.40
2023-11-19T11:26:40.938Z,13.50
2023-11-19T11:29:18.011Z,13.40
2023-11-19T11:31:58.149Z,13.30
2023-11-19T11:34:57.004Z,13.30
2023-11-19T11:37:34.079Z,13.20
2023-11-19T11:40:06.352Z,13.30
2023-11-19T11:42:38.211Z,13.30
2023-11-19T11:45:10.702Z,13.40
2023-11-19T11:48:13.442Z,13.50
2023-11-19T11:51:09.665Z,13.50
2023-11-19T11:53:40.886Z,13.50
2023-11-19T11:56:13.482Z,13.50
2023-11-19T11:58:46.346Z,13.50
2023-11-19T12:01:22.041Z,13.50
2023-11-19T12:03:54.771Z,13.70
2023-11-19T12:06:25.422Z,13.70
2023-11-19T12:08:56.253Z,13.70
2023-11-19T12:11:28.316Z,13.70
2023-11-19T12:14:00.521Z,13.50
2023-11-19T12:16:30.391Z,13.50
2023-11-19T12:18:59.081Z,13.60
2023-11-19T12:21:31.988Z,13.50
2023-11-19T12:24:08.950Z,13.50
2023-11-19T12:26:39.103Z,13.40
2023-11-19T12:29:10.441Z,13.40
2023-11-19T12:31:39.782Z,13.50
2023-11-19T12:34:15.463Z,13.50
2023-11-19T12:36:55.861Z,13.60
2023-11-19T12:39:25.834Z,13.60
2023-11-19T12:42:00.421Z,13.70
2023-11-19T12:44:28.332Z,13.90
2023-11-19T12:47:03.752Z,13.80
2023-11-19T12:49:32.247Z,13.70
2023-11-19T12:52:02.236Z,13.50
2023-11-19T12:54:42.702Z,13.50
2023-11-19T12:57:10.651Z,13.40
2023-11-19T12:59:38.449Z,13.30
2023-11-19T13:02:07.578Z,13.30
2023-11-19T13:04:36.161Z,13.20
2023-11-19T13:07:05.865Z,13.20
2023-11-19T13:09:34.482Z,13.30
2023-11-19T13:12:15.189Z,13.20
2023-11-19T13:14:45.239Z,13.10
2023-11-19T13:17:15.841Z,13.10
2023-11-19T13:19:43.665Z,13.00
2023-11-19T13:22:11.814Z,12.90
2023-11-19T13:24:41.287Z,12.90
2023-11-19T13:27:11.138Z,12.70
2023-11-19T13:29:39.043Z,12.70
2023-11-19T13:32:07.690Z,12.70
2023-11-19T13:34:35.666Z,12.60
2023-11-19T13:37:03.970Z,12.60
2023-11-19T13:39:32.157Z,12.50
2023-11-19T13:44:33.409Z,12.50
2023-11-19T13:47:01.366Z,12.40
2023-11-19T13:49:29.534Z,12.30
2023-11-19T13:51:57.475Z,12.40
2023-11-19T13:54:25.490Z,12.50
2023-11-19T13:56:59.046Z,12.50
2023-11-19T13:59:27.016Z,12.60
2023-11-19T14:01:56.989Z,12.70
2023-11-19T14:04:25.089Z,12.70
2023-11-19T14:06:53.446Z,12.80
2023-11-19T14:09:21.529Z,12.70
2023-11-19T14:11:52.236Z,12.70
2023-11-19T14:14:20.189Z,12.50
2023-11-19T14:16:48.932Z,12.50
2023-11-19T14:19:18.371Z,12.30
2023-11-19T14:21:46.413Z,12.30
2023-11-19T14:24:14.599Z,12.20
2023-11-19T14:26:42.648Z,12.40
2023-11-19T14:29:10.574Z,12.40
2023-11-19T14:31:38.564Z,12.30
2023-11-19T14:34:06.745Z,12.40
2023-11-19T14:36:36.282Z,12.30
2023-11-19T14:39:05.212Z,12.50
2023-11-19T14:41:33.168Z,12.40
2023-11-19T14:44:02.333Z,12.40
2023-11-19T14:46:30.203Z,12.30
2023-11-19T14:48:58.240Z,12.50
2023-11-19T14:51:26.139Z,12.50
2023-11-19T14:53:55.427Z,12.60
2023-11-19T14:56:24.912Z,12.50
2023-11-19T14:58:53.047Z,12.30
2023-11-19T15:01:21.201Z,12.20
2023-11-19T15:06:20.142Z,12.30
2023-11-19T15:08:48.180Z,12.40
2023-11-19T15:11:17.516Z,12.30
2023-11-19T15:13:45.372Z,12.30
2023-11-19T15:16:15.047Z,12.00
2023-11-19T15:18:43.140Z,11.90
2023-11-19T15:21:12.736Z,11.70
2023-11-19T15:23:41.788Z,11.60
2023-11-19T15:26:11.554Z,11.50
2023-11-19T15:28:40.931Z,11.40
2023-11-19T15:31:08.918Z,11.30
2023-11-19T15:33:36.840Z,11.30
2023-11-19T15:36:08.746Z,11.30
2023-11-19T15:38:52.922Z,11.20
2023-11-19T15:41:21.454Z,11.30
2023-11-19T15:43:51.028Z,11.20
2023-11-19T15:46:19.108Z,11.20
2023-11-19T15:48:47.014Z,11.20
2023-11-19T15:51:14.886Z,11.20
2023-11-19T15:53:43.497Z,11.20
2023-11-19T15:56:11.859Z,11.20
2023-11-19T15:58:40.611Z,11.20
2023-11-19T16:01:10.341Z,11.10
2023-11-19T16:06:11.413Z,11.20
2023-11-19T16:08:39.754Z,11.20
2023-11-19T16:11:09.174Z,11.30
2023-11-19T16:13:36.986Z,11.20
2023-11-19T16:16:05.875Z,11.30
2023-11-19T16:18:35.072Z,11.20
2023-11-19T16:21:03.488Z,11.30
2023-11-19T16:23:31.485Z,11.20
2023-11-19T16:25:59.354Z,11.40
2023-11-19T16:28:27.191Z,11.30
2023-11-19T16:30:55.015Z,11.30
2023-11-19T16:33:28.874Z,11.30
2023-11-19T16:36:00.497Z,11.40
2023-11-19T16:38:29.587Z,11.40
2023-11-19T16:40:59.330Z,11.40
2023-11-19T16:43:28.844Z,11.40
2023-11-19T16:45:56.986Z,11.20
2023-11-19T16:48:25.765Z,11.30
2023-11-19T16:53:27.197Z,11.40
2023-11-19T16:55:55.027Z,11.40
2023-11-19T16:58:23.792Z,11.40
2023-11-19T17:00:51.712Z,11.40
2023-11-19T17:03:19.861Z,11.30
2023-11-19T17:05:47.750Z,11.40
2023-11-19T17:08:15.645Z,11.40
2023-11-19T17:10:47.091Z,11.30
2023-11-19T17:13:15.724Z,11.40
2023-11-19T17:15:43.696Z,11.50
2023-11-19T17:18:11.806Z,11.30
2023-11-19T17:20:39.959Z,11.30
2023-11-19T17:23:09.573Z,11.40
2023-11-19T17:25:37.445Z,11.40
2023-11-19T17:28:09.092Z,11.40
2023-11-19T17:30:36.991Z,11.40
2023-11-19T17:33:05.967Z,11.40
2023-11-19T17:35:35.052Z,11.40
2023-11-19T17:38:03.475Z,11.30
2023-11-19T17:40:31.487Z,11.30
2023-11-19T17:42:59.389Z,11.40
2023-11-19T17:45:28.788Z,11.30
2023-11-19T17:47:56.580Z,11.30
2023-11-19T17:50:25.474Z,11.30
2023-11-19T17:52:54.768Z,11.20
2023-11-19T17:55:22.730Z,11.40
2023-11-19T17:57:51.823Z,11.40
2023-11-19T18:00:20.215Z,11.30
2023-11-19T18:02:51.194Z,11.30
2023-11-19T18:05:21.492Z,11.40
2023-11-19T18:07:49.724Z,11.30
2023-11-19T18:10:18.405Z,11.40
2023-11-19T18:12:46.706Z,11.30
2023-11-19T18:15:15.528Z,11.40
2023-11-19T18:17:44.376Z,11.30
2023-11-19T18:20:16.222Z,11.30
2023-11-19T18:22:46.266Z,11.30
2023-11-19T18:25:16.282Z,11.30
2023-11-19T18:27:44.338Z,11.20
2023-11-19T18:30:14.754Z,11.30
2023-11-19T18:32:43.999Z,11.20
2023-11-19T18:35:13.719Z,11.20
2023-11-19T18:37:42.424Z,11.10
2023-11-19T18:40:12.730Z,11.10
2023-11-19T18:42:40.693Z,11.10
2023-11-19T18:45:10.052Z,11.10
2023-11-19T18:47:38.870Z,11.10
2023-11-19T18:50:09.534Z,10.90
2023-11-19T18:52:38.859Z,11.00
2023-11-19T18:55:10.076Z,11.00
2023-11-19T18:57:37.892Z,11.00
2023-11-19T19:00:08.472Z,10.90
2023-11-19T19:02:36.648Z,10.90
2023-11-19T19:05:05.150Z,11.00
2023-11-19T19:07:33.306Z,11.00
2023-11-19T19:10:03.509Z,10.90
2023-11-19T19:12:31.988Z,11.00
2023-11-19T19:17:32.227Z,10.90
2023-11-19T19:20:02.178Z,10.90
2023-11-19T19:22:30.504Z,10.90
2023-11-19T19:24:58.740Z,10.90
2023-11-19T19:27:27.949Z,10.90
2023-11-19T19:29:55.774Z,10.90
2023-11-19T19:32:24.640Z,10.90
2023-11-19T19:34:54.455Z,11.00
2023-11-19T19:37:23.995Z,10.90
2023-11-19T19:39:52.032Z,10.80
2023-11-19T19:42:19.822Z,11.00
2023-11-19T19:44:49.082Z,10.90
2023-11-19T19:47:18.770Z,10.90
2023-11-19T19:49:46.658Z,10.80
2023-11-19T19:52:14.774Z,10.90
2023-11-19T19:54:42.618Z,10.80
2023-11-19T19:57:10.405Z,10.80
2023-11-19T19:59:38.836Z,10.80
2023-11-19T20:02:08.152Z,10.90
2023-11-19T20:07:24.458Z,10.80
2023-11-19T20:09:52.425Z,10.90
2023-11-19T20:12:20.343Z,10.80
2023-11-19T20:14:48.633Z,10.90
2023-11-19T20:17:18.072Z,10.80
2023-11-19T20:19:45.717Z,10.80
2023-11-19T20:22:14.021Z,10.80
2023-11-19T20:24:41.869Z,10.90
2023-11-19T20:27:16.494Z,10.90
2023-11-19T20:29:47.044Z,10.80
2023-11-19T20:32:14.992Z,10.80
2023-11-19T20:34:44.201Z,10.90
2023-11-19T20:37:12.042Z,10.70
2023-11-19T20:39:40.315Z,10.90
2023-11-19T20:42:08.570Z,10.70
2023-11-19T20:44:36.462Z,10.80
2023-11-19T20:47:06.140Z,10.70
2023-11-19T20:49:34.049Z,10.80
2023-11-19T20:52:04.057Z,10.80
2023-11-19T20:57:02.616Z,10.90
2023-11-19T20:59:30.434Z,10.90
2023-11-19T21:01:58.535Z,10.90
2023-11-19T21:04:26.426Z,10.80
2023-11-19T21:06:55.318Z,10.90
2023-11-19T21:09:24.862Z,10.90
2023-11-19T21:11:52.800Z,10.80
2023-11-19T21:14:20.597Z,10.90
2023-11-19T21:16:48.656Z,11.00
2023-11-19T21:19:16.601Z,10.90
2023-11-19T21:21:44.846Z,10.90
2023-11-19T21:24:13.070Z,10.90
2023-11-19T21:26:43.132Z,10.90
2023-11-19T21:29:12.153Z,10.90
2023-11-19T21:34:10.779Z,10.90
2023-11-19T21:36:39.906Z,11.00
2023-11-19T21:39:09.763Z,10.90
2023-11-19T21:41:38.202Z,10.90
2023-11-19T21:44:08.673Z,11.00
2023-11-19T21:46:36.559Z,11.00
2023-11-19T21:49:04.439Z,11.00
2023-11-19T21:51:32.315Z,11.00
2023-11-19T21:54:00.925Z,11.10
2023-11-19T21:56:28.717Z,11.00
2023-11-19T21:58:56.799Z,11.00
2023-11-19T22:01:25.987Z,11.10
2023-11-19T22:03:54.215Z,10.90
2023-11-19T22:06:22.635Z,11.00
2023-11-19T22:08:50.474Z,11.00
2023-11-19T22:11:18.495Z,11.10
2023-11-19T22:13:46.322Z,11.00
2023-11-19T22:16:14.246Z,11.10
2023-11-19T22:18:43.816Z,11.10
2023-11-19T22:21:12.305Z,11.10
2023-11-19T22:23:40.146Z,11.10
2023-11-19T22:26:08.046Z,11.10
2023-11-19T22:28:37.916Z,11.10
2023-11-19T22:31:05.963Z,11.20
2023-11-19T22:33:34.202Z,11.10
2023-11-19T22:36:03.578Z,11.10
2023-11-19T22:38:31.272Z,11.10
2023-11-19T22:40:59.127Z,11.10
2023-11-19T22:43:27.488Z,11.10
2023-11-19T22:45:55.436Z,11.20
2023-11-19T22:48:24.378Z,11.10
2023-11-19T22:50:52.211Z,11.10
2023-11-19T22:53:21.398Z,11.20
2023-11-19T22:55:49.235Z,11.10
2023-11-19T22:58:17.095Z,11.10
2023-11-19T23:00:46.870Z,11.10
2023-11-19T23:03:15.417Z,11.20
2023-11-19T23:05:43.274Z,11.10
2023-11-19T23:08:12.373Z,11.20
2023-11-19T23:10:41.573Z,11.10
2023-11-19T23:13:09.941Z,11.20
2023-11-19T23:15:37.838Z,11.10
2023-11-19T23:18:06.242Z,11.10
2023-11-19T23:20:34.083Z,11.20
2023-11-19T23:23:01.895Z,11.10
2023-11-19T23:25:29.712Z,11.10
2023-11-19T23:27:58.861Z,11.10
2023-11-19T23:30:26.753Z,11.20
2023-11-19T23:32:54.643Z,11.10
2023-11-19T23:35:24.392Z,11.10
2023-11-19T23:37:52.708Z,11.20
2023-11-19T23:40:20.807Z,11.10
2023-11-19T23:42:49.321Z,11.20
2023-11-19T23:45:20.471Z,11.10
2023-11-19T23:47:48.299Z,11.20
2023-11-19T23:50:16.249Z,11.20
2023-11-19T23:52:44.324Z,11.20
2023-11-19T23:55:12.393Z,11.20
2023-11-19T23:57:41.397Z,11.20
